createdAt,value
2018-09-21T00:01:51.794Z,17.40
2018-09-21T00:04:20.608Z,17.40
2018-09-21T00:06:49.513Z,17.45
2018-09-21T00:09:18.219Z,17.49
2018-09-21T00:11:46.970Z,17.54
2018-09-21T00:14:15.643Z,17.54
2018-09-21T00:16:44.380Z,17.52
2018-09-21T00:19:13.195Z,17.50
2018-09-21T00:21:41.857Z,17.46
2018-09-21T00:24:10.471Z,17.40
2018-09-21T00:26:39.082Z,17.31
2018-09-21T00:29:07.673Z,17.26
2018-09-21T00:31:36.318Z,17.20
2018-09-21T00:34:04.958Z,17.20
2018-09-21T00:36:33.563Z,17.20
2018-09-21T00:39:02.171Z,17.16
2018-09-21T00:41:30.795Z,17.10
2018-09-21T00:43:59.394Z,17.06
2018-09-21T00:46:28.085Z,17.05
2018-09-21T00:48:56.674Z,17.10
2018-09-21T00:51:25.287Z,17.14
2018-09-21T00:53:53.883Z,17.17
2018-09-21T00:56:22.495Z,17.19
2018-09-21T00:58:51.155Z,17.20
2018-09-21T01:01:42.766Z,17.18
2018-09-21T01:04:11.371Z,17.13
2018-09-21T01:06:39.999Z,17.08
2018-09-21T01:09:10.482Z,17.09
2018-09-21T01:11:39.535Z,17.10
2018-09-21T01:14:17.925Z,17.13
2018-09-21T01:16:46.538Z,17.12
2018-09-21T01:19:15.151Z,17.17
2018-09-21T01:21:43.762Z,17.19
2018-09-21T01:24:12.360Z,17.21
2018-09-21T01:26:40.982Z,17.19
2018-09-21T01:29:09.637Z,17.17
2018-09-21T01:31:38.342Z,17.10
2018-09-21T01:34:06.990Z,17.05
2018-09-21T01:36:35.635Z,17.04
2018-09-21T01:39:05.190Z,17.03
2018-09-21T01:41:33.807Z,16.97
2018-09-21T01:44:02.418Z,16.91
2018-09-21T01:46:31.023Z,16.92
2018-09-21T01:48:59.665Z,16.90
2018-09-21T01:51:28.536Z,16.88
2018-09-21T01:53:57.117Z,16.84
2018-09-21T01:56:25.730Z,16.83
2018-09-21T01:58:54.330Z,16.76
2018-09-21T02:01:22.924Z,16.68
2018-09-21T02:03:51.568Z,16.60
2018-09-21T02:06:20.174Z,16.56
2018-09-21T02:08:48.792Z,16.52
2018-09-21T02:11:17.447Z,16.51
2018-09-21T02:13:46.077Z,16.51
2018-09-21T02:16:14.675Z,16.57
2018-09-21T02:18:43.312Z,16.59
2018-09-21T02:21:11.906Z,16.61
2018-09-21T02:23:40.520Z,16.58
2018-09-21T02:26:09.101Z,16.52
2018-09-21T02:28:37.723Z,16.57
2018-09-21T02:31:06.775Z,16.67
2018-09-21T02:33:35.417Z,16.70
2018-09-21T02:36:04.021Z,16.69
2018-09-21T02:38:32.643Z,16.63
2018-09-21T02:41:01.231Z,16.61
2018-09-21T02:43:29.831Z,16.62
2018-09-21T02:45:58.418Z,16.62
2018-09-21T02:48:27.031Z,16.62
2018-09-21T02:50:55.679Z,16.64
2018-09-21T02:53:24.287Z,16.66
2018-09-21T02:55:52.875Z,16.69
2018-09-21T02:58:21.489Z,16.76
2018-09-21T03:00:50.224Z,16.75
2018-09-21T03:03:18.753Z,16.72
2018-09-21T03:05:47.405Z,16.70
2018-09-21T03:08:16.015Z,16.69
2018-09-21T03:10:44.616Z,16.70
2018-09-21T03:13:13.273Z,16.73
2018-09-21T03:15:41.886Z,16.72
2018-09-21T03:18:10.500Z,16.70
2018-09-21T03:20:39.126Z,16.68
2018-09-21T03:23:07.739Z,16.72
2018-09-21T03:25:36.351Z,16.72
2018-09-21T03:28:04.970Z,16.73
2018-09-21T03:30:33.565Z,16.74
2018-09-21T03:33:02.202Z,16.70
2018-09-21T03:35:30.786Z,16.72
2018-09-21T03:37:59.462Z,16.77
2018-09-21T03:40:28.055Z,16.77
2018-09-21T03:42:56.666Z,16.72
2018-09-21T03:45:25.302Z,16.69
2018-09-21T03:47:53.912Z,16.71
2018-09-21T03:50:22.497Z,16.75
2018-09-21T03:52:51.124Z,16.79
2018-09-21T03:55:19.724Z,16.80
2018-09-21T03:57:48.329Z,16.83
2018-09-21T04:00:16.948Z,16.82
2018-09-21T04:02:45.574Z,16.81
2018-09-21T04:05:14.193Z,16.82
2018-09-21T04:07:42.778Z,16.87
2018-09-21T04:10:11.408Z,16.88
2018-09-21T04:12:39.999Z,16.88
2018-09-21T04:15:09.032Z,16.87
2018-09-21T04:17:37.646Z,16.87
2018-09-21T04:20:06.411Z,16.84
2018-09-21T04:22:35.009Z,16.79
2018-09-21T04:25:04.293Z,16.73
2018-09-21T04:27:32.928Z,16.70
2018-09-21T04:30:01.571Z,16.66
2018-09-21T04:32:30.189Z,16.60
2018-09-21T04:34:58.846Z,16.57
2018-09-21T04:37:27.435Z,16.56
2018-09-21T04:39:56.051Z,16.53
2018-09-21T04:42:24.648Z,16.54
2018-09-21T04:44:53.271Z,16.60
2018-09-21T04:47:21.857Z,16.67
2018-09-21T04:49:50.517Z,16.71
2018-09-21T04:52:19.151Z,16.72
2018-09-21T04:54:47.750Z,16.72
2018-09-21T04:57:16.436Z,16.74
2018-09-21T04:59:45.050Z,16.74
2018-09-21T05:02:13.698Z,16.76
2018-09-21T05:04:42.312Z,16.82
2018-09-21T05:07:10.906Z,16.85
2018-09-21T05:09:39.560Z,16.87
2018-09-21T05:12:08.152Z,16.90
2018-09-21T05:14:36.770Z,16.94
2018-09-21T05:17:05.388Z,16.98
2018-09-21T05:19:34.014Z,17.05
2018-09-21T05:22:02.623Z,17.09
2018-09-21T05:24:31.260Z,17.15
2018-09-21T05:26:59.875Z,17.23
2018-09-21T05:29:28.488Z,17.30
2018-09-21T05:31:57.103Z,17.42
2018-09-21T05:34:25.789Z,17.52
2018-09-21T05:36:54.371Z,17.68
2018-09-21T05:39:22.990Z,17.79
2018-09-21T05:41:51.592Z,18.04
2018-09-21T05:44:20.201Z,18.45
2018-09-21T05:46:48.812Z,18.75
2018-09-21T05:49:17.451Z,18.89
2018-09-21T05:51:46.070Z,18.70
2018-09-21T05:54:14.684Z,18.66
2018-09-21T05:56:44.257Z,18.60
2018-09-21T05:59:12.862Z,18.64
2018-09-21T06:01:41.458Z,18.71
2018-09-21T06:04:10.074Z,18.75
2018-09-21T06:06:38.732Z,18.67
2018-09-21T06:09:10.172Z,18.58
2018-09-21T06:11:38.833Z,18.56
2018-09-21T06:14:07.901Z,18.64
2018-09-21T06:16:36.552Z,18.67
2018-09-21T06:19:05.255Z,18.71
2018-09-21T06:21:34.025Z,18.84
2018-09-21T06:24:02.694Z,18.91
2018-09-21T06:26:31.324Z,19.06
2018-09-21T06:28:59.932Z,19.25
2018-09-21T06:31:28.577Z,19.41
2018-09-21T06:33:57.184Z,19.56
2018-09-21T06:36:25.805Z,19.70
2018-09-21T06:38:54.409Z,19.81
2018-09-21T06:41:23.092Z,19.93
2018-09-21T06:43:51.698Z,20.06
2018-09-21T06:46:20.328Z,20.14
2018-09-21T06:48:48.934Z,20.23
2018-09-21T06:51:17.558Z,20.32
2018-09-21T06:53:46.158Z,20.57
2018-09-21T06:56:14.823Z,20.78
2018-09-21T06:58:43.463Z,20.92
2018-09-21T07:01:12.094Z,21.15
2018-09-21T07:03:40.704Z,21.30
2018-09-21T07:06:09.379Z,21.46
2018-09-21T07:08:37.974Z,21.53
2018-09-21T07:11:06.608Z,21.63
2018-09-21T07:13:35.227Z,21.85
2018-09-21T07:16:03.846Z,22.07
2018-09-21T07:18:32.446Z,22.33
2018-09-21T07:21:01.072Z,22.56
2018-09-21T07:23:29.669Z,22.74
2018-09-21T07:25:58.276Z,23.00
2018-09-21T07:28:26.888Z,23.22
2018-09-21T07:30:55.578Z,23.31
2018-09-21T07:33:24.190Z,23.47
2018-09-21T07:35:52.827Z,23.63
2018-09-21T07:38:21.433Z,23.80
2018-09-21T07:40:50.048Z,24.04
2018-09-21T07:43:18.657Z,24.23
2018-09-21T07:45:47.291Z,24.52
2018-09-21T07:48:15.889Z,24.42
2018-09-21T07:50:44.488Z,24.47
2018-09-21T07:53:13.071Z,24.81
2018-09-21T07:55:41.683Z,25.10
2018-09-21T07:58:10.273Z,25.49
2018-09-21T08:00:38.890Z,25.82
2018-09-21T08:03:07.473Z,25.95
2018-09-21T08:05:36.273Z,25.95
2018-09-21T08:08:05.802Z,25.92
2018-09-21T08:10:34.402Z,25.74
2018-09-21T08:13:03.071Z,25.63
2018-09-21T08:15:32.230Z,25.50
2018-09-21T08:18:00.835Z,25.53
2018-09-21T08:20:29.454Z,25.50
2018-09-21T08:22:58.118Z,25.57
2018-09-21T08:25:26.722Z,25.60
2018-09-21T08:27:55.327Z,25.67
2018-09-21T08:30:23.922Z,25.70
2018-09-21T08:32:52.566Z,25.65
2018-09-21T08:35:21.149Z,25.56
2018-09-21T08:37:49.783Z,25.52
2018-09-21T08:40:18.412Z,25.50
2018-09-21T08:42:47.043Z,25.57
2018-09-21T08:45:15.658Z,25.54
2018-09-21T08:47:44.266Z,25.54
2018-09-21T08:50:12.871Z,25.53
2018-09-21T08:52:41.474Z,25.57
2018-09-21T08:55:10.051Z,25.68
2018-09-21T08:57:38.663Z,25.73
2018-09-21T09:00:07.279Z,25.82
2018-09-21T09:02:35.893Z,25.80
2018-09-21T09:05:04.599Z,25.69
2018-09-21T09:07:33.216Z,25.61
2018-09-21T09:10:01.811Z,25.56
2018-09-21T09:12:30.448Z,25.67
2018-09-21T09:14:59.046Z,25.65
2018-09-21T09:17:27.687Z,25.56
2018-09-21T09:19:56.279Z,25.45
2018-09-21T09:22:24.895Z,25.44
2018-09-21T09:24:55.063Z,25.42
2018-09-21T09:27:25.032Z,25.43
2018-09-21T09:29:56.912Z,25.46
2018-09-21T09:32:31.847Z,25.47
2018-09-21T09:35:06.142Z,25.50
2018-09-21T09:37:38.940Z,25.47
2018-09-21T09:40:10.939Z,25.50
2018-09-21T09:42:41.447Z,25.52
2018-09-21T09:45:12.083Z,25.60
2018-09-21T09:47:41.864Z,25.68
2018-09-21T09:50:16.128Z,25.74
2018-09-21T09:52:47.954Z,25.80
2018-09-21T09:55:18.918Z,25.85
2018-09-21T09:57:49.858Z,25.89
2018-09-21T10:00:27.280Z,25.92
2018-09-21T10:02:58.178Z,25.97
2018-09-21T10:05:27.691Z,25.94
2018-09-21T10:08:02.510Z,25.96
2018-09-21T10:10:32.174Z,25.82
2018-09-21T10:13:03.807Z,25.67
2018-09-21T10:15:33.517Z,25.54
2018-09-21T10:18:03.937Z,25.39
2018-09-21T10:20:35.398Z,25.23
2018-09-21T10:23:05.484Z,25.19
2018-09-21T10:25:36.851Z,25.14
2018-09-21T10:28:08.744Z,25.15
2018-09-21T10:30:43.921Z,25.05
2018-09-21T10:33:14.382Z,25.01
2018-09-21T10:35:44.944Z,24.97
2018-09-21T10:38:19.490Z,24.89
2018-09-21T10:40:48.900Z,24.89
2018-09-21T10:43:18.744Z,24.91
2018-09-21T10:45:48.967Z,24.94
2018-09-21T10:48:20.188Z,24.98
2018-09-21T10:50:51.190Z,25.11
2018-09-21T10:53:22.371Z,25.17
2018-09-21T10:55:52.555Z,25.13
2018-09-21T10:58:23.150Z,25.05
2018-09-21T11:00:55.827Z,24.97
2018-09-21T11:03:27.914Z,24.89
2018-09-21T11:05:58.153Z,24.77
2018-09-21T11:08:31.083Z,24.67
2018-09-21T11:11:02.612Z,24.57
2018-09-21T11:13:34.442Z,24.54
2018-09-21T11:16:04.297Z,24.52
2018-09-21T11:18:35.313Z,24.53
2018-09-21T11:21:05.259Z,24.61
2018-09-21T11:23:35.175Z,24.71
2018-09-21T11:26:05.736Z,24.87
2018-09-21T11:28:39.378Z,25.01
2018-09-21T11:31:10.022Z,25.14
2018-09-21T11:33:40.863Z,25.19
2018-09-21T11:36:14.608Z,25.26
2018-09-21T11:38:46.502Z,25.26
2018-09-21T11:41:20.136Z,25.19
2018-09-21T11:43:50.137Z,25.10
2018-09-21T11:46:21.559Z,24.94
2018-09-21T11:48:51.346Z,24.81
2018-09-21T11:51:22.402Z,24.67
2018-09-21T11:53:52.934Z,24.51
2018-09-21T11:56:23.621Z,24.37
2018-09-21T11:58:58.766Z,24.03
2018-09-21T12:01:28.886Z,23.18
2018-09-21T12:04:04.926Z,21.07
2018-09-21T12:06:35.146Z,19.55
2018-09-21T12:09:07.297Z,18.73
2018-09-21T12:11:37.818Z,18.23
2018-09-21T12:14:08.225Z,17.86
2018-09-21T12:16:38.723Z,17.45
2018-09-21T12:19:11.308Z,17.14
2018-09-21T12:21:47.196Z,16.86
2018-09-21T12:24:22.082Z,16.46
2018-09-21T12:26:54.720Z,15.54
2018-09-21T12:29:28.335Z,15.23
2018-09-21T12:32:00.532Z,14.89
2018-09-21T12:34:32.098Z,14.62
2018-09-21T12:37:09.461Z,14.45
2018-09-21T12:39:40.438Z,14.32
2018-09-21T12:42:13.823Z,14.24
2018-09-21T12:44:47.030Z,14.17
2018-09-21T12:47:23.271Z,14.13
2018-09-21T12:49:52.648Z,14.08
2018-09-21T12:52:24.338Z,14.07
2018-09-21T12:54:53.908Z,14.09
2018-09-21T12:57:28.223Z,14.10
2018-09-21T13:00:09.513Z,14.12
2018-09-21T13:05:47.043Z,14.20
2018-09-21T13:08:18.723Z,14.20
2018-09-21T13:10:48.502Z,14.28
2018-09-21T13:13:22.693Z,14.36
2018-09-21T13:16:02.479Z,14.39
2018-09-21T13:18:35.415Z,14.39
2018-09-21T13:21:06.170Z,14.38
2018-09-21T13:23:35.570Z,14.41
2018-09-21T13:26:06.148Z,14.45
2018-09-21T13:28:38.599Z,14.47
2018-09-21T13:34:08.264Z,14.42
2018-09-21T13:36:39.675Z,14.40
2018-09-21T13:39:14.841Z,14.37
2018-09-21T13:41:50.041Z,14.34
2018-09-21T13:44:22.376Z,14.34
2018-09-21T13:46:54.099Z,14.35
2018-09-21T13:49:23.629Z,14.35
2018-09-21T13:51:58.280Z,14.37
2018-09-21T13:54:34.382Z,14.42
2018-09-21T13:57:08.413Z,14.46
2018-09-21T13:59:36.996Z,14.53
2018-09-21T14:02:05.626Z,14.53
2018-09-21T14:04:34.221Z,14.58
2018-09-21T14:07:02.864Z,14.59
2018-09-21T14:09:31.513Z,14.60
2018-09-21T14:12:00.150Z,14.55
2018-09-21T14:14:28.747Z,14.54
2018-09-21T14:16:57.371Z,14.51
2018-09-21T14:19:26.015Z,14.46
2018-09-21T14:21:54.642Z,14.40
2018-09-21T14:24:23.291Z,14.39
2018-09-21T14:26:51.901Z,14.33
2018-09-21T14:29:20.535Z,14.27
2018-09-21T14:31:49.188Z,14.22
2018-09-21T14:34:17.797Z,14.14
2018-09-21T14:36:46.401Z,14.10
2018-09-21T14:39:14.985Z,14.05
2018-09-21T14:41:43.604Z,14.01
2018-09-21T14:44:12.263Z,13.94
2018-09-21T14:46:40.908Z,13.89
2018-09-21T14:49:09.526Z,13.88
2018-09-21T14:51:38.140Z,13.84
2018-09-21T14:54:06.743Z,13.84
2018-09-21T14:56:35.361Z,13.87
2018-09-21T14:59:04.017Z,13.98
2018-09-21T15:01:32.644Z,14.11
2018-09-21T15:04:01.245Z,14.16
2018-09-21T15:06:29.862Z,14.23
2018-09-21T15:08:58.462Z,14.22
2018-09-21T15:11:27.127Z,14.19
2018-09-21T15:13:55.946Z,14.15
2018-09-21T15:16:24.584Z,14.11
2018-09-21T15:18:53.179Z,14.19
2018-09-21T15:21:21.790Z,14.22
2018-09-21T15:23:50.370Z,14.21
2018-09-21T15:26:18.994Z,14.28
2018-09-21T15:28:47.690Z,14.29
2018-09-21T15:31:16.407Z,14.28
2018-09-21T15:33:44.992Z,14.27
2018-09-21T15:36:13.618Z,14.26
2018-09-21T15:38:42.220Z,14.21
2018-09-21T15:41:10.899Z,14.20
2018-09-21T15:43:39.531Z,14.18
2018-09-21T15:46:08.162Z,14.12
2018-09-21T15:48:36.751Z,14.08
2018-09-21T15:51:05.367Z,14.06
2018-09-21T15:53:33.968Z,14.02
2018-09-21T15:56:02.702Z,14.05
2018-09-21T15:58:31.330Z,14.04
2018-09-21T16:00:59.944Z,14.05
2018-09-21T16:03:28.578Z,14.09
2018-09-21T16:05:57.205Z,14.10
2018-09-21T16:08:25.813Z,14.11
2018-09-21T16:10:54.415Z,14.06
2018-09-21T16:13:53.792Z,14.05
2018-09-21T16:16:22.476Z,14.03
2018-09-21T16:18:51.122Z,14.01
2018-09-21T16:21:19.776Z,14.03
2018-09-21T16:23:48.409Z,14.05
2018-09-21T16:26:17.003Z,14.07
2018-09-21T16:28:45.651Z,14.09
2018-09-21T16:31:14.315Z,14.10
2018-09-21T16:33:42.932Z,14.13
2018-09-21T16:36:11.741Z,14.22
2018-09-21T16:38:40.403Z,14.27
2018-09-21T16:41:09.000Z,14.30
2018-09-21T16:43:37.626Z,14.32
2018-09-21T16:46:06.312Z,14.34
2018-09-21T16:48:34.937Z,14.37
2018-09-21T16:51:03.539Z,14.28
2018-09-21T16:53:32.159Z,14.25
2018-09-21T16:56:00.779Z,14.20
2018-09-21T16:58:29.399Z,14.14
2018-09-21T17:00:57.994Z,14.08
2018-09-21T17:03:26.637Z,14.02
2018-09-21T17:05:55.257Z,13.94
2018-09-21T17:08:23.877Z,13.83
2018-09-21T17:10:52.467Z,13.76
2018-09-21T17:13:21.114Z,13.61
2018-09-21T17:15:49.747Z,13.51
2018-09-21T17:18:18.391Z,13.41
2018-09-21T17:20:46.970Z,13.30
2018-09-21T17:23:15.584Z,13.21
2018-09-21T17:25:44.290Z,13.15
2018-09-21T17:28:14.128Z,13.06
2018-09-21T17:30:42.718Z,12.97
2018-09-21T17:33:11.341Z,12.93
2018-09-21T17:35:40.024Z,12.86
2018-09-21T17:38:08.680Z,12.78
2018-09-21T17:40:37.285Z,12.71
2018-09-21T17:43:06.290Z,12.61
2018-09-21T17:45:34.905Z,12.54
2018-09-21T17:48:03.546Z,12.50
2018-09-21T17:50:32.161Z,12.47
2018-09-21T17:53:00.753Z,12.50
2018-09-21T17:55:29.376Z,12.51
2018-09-21T17:57:57.976Z,12.52
2018-09-21T18:00:26.589Z,12.52
2018-09-21T18:02:55.189Z,12.51
2018-09-21T18:05:23.806Z,12.53
2018-09-21T18:07:52.407Z,12.50
2018-09-21T18:10:21.019Z,12.47
2018-09-21T18:12:49.610Z,12.42
2018-09-21T18:15:18.218Z,12.36
2018-09-21T18:17:46.822Z,12.27
2018-09-21T18:20:15.442Z,12.17
2018-09-21T18:22:44.174Z,12.09
2018-09-21T18:25:12.824Z,12.04
2018-09-21T18:27:41.420Z,12.01
2018-09-21T18:30:10.036Z,11.95
2018-09-21T18:32:38.749Z,11.84
2018-09-21T18:35:07.379Z,11.76
2018-09-21T18:37:35.961Z,11.70
2018-09-21T18:40:04.795Z,11.61
2018-09-21T18:42:33.411Z,11.57
2018-09-21T18:45:02.017Z,11.51
2018-09-21T18:47:30.642Z,11.46
2018-09-21T18:49:59.512Z,11.42
2018-09-21T18:52:28.097Z,11.41
2018-09-21T18:54:56.721Z,11.39
2018-09-21T18:57:25.331Z,11.41
2018-09-21T18:59:53.923Z,11.39
2018-09-21T19:02:22.534Z,11.33
2018-09-21T19:04:51.112Z,11.28
2018-09-21T19:07:25.046Z,11.28
2018-09-21T19:09:53.647Z,11.29
2018-09-21T19:12:22.269Z,11.29
2018-09-21T19:14:50.848Z,11.31
2018-09-21T19:17:19.462Z,11.32
2018-09-21T19:19:48.050Z,11.33
2018-09-21T19:22:16.678Z,11.37
2018-09-21T19:24:45.275Z,11.41
2018-09-21T19:27:13.884Z,11.45
2018-09-21T19:29:42.476Z,11.48
2018-09-21T19:32:11.186Z,11.52
2018-09-21T19:34:39.773Z,11.56
2018-09-21T19:37:08.378Z,11.55
2018-09-21T19:39:36.963Z,11.48
2018-09-21T19:42:05.574Z,11.38
2018-09-21T19:44:34.185Z,11.29
2018-09-21T19:47:02.784Z,11.28
2018-09-21T19:49:31.410Z,11.22
2018-09-21T19:52:00.005Z,11.22
2018-09-21T19:54:28.709Z,11.19
2018-09-21T19:56:57.249Z,11.14
2018-09-21T19:59:25.851Z,11.12
2018-09-21T20:01:54.451Z,11.06
2018-09-21T20:04:23.096Z,11.06
2018-09-21T20:06:51.699Z,11.06
2018-09-21T20:09:20.319Z,11.07
2018-09-21T20:11:48.925Z,11.05
2018-09-21T20:14:17.545Z,10.96
2018-09-21T20:16:46.158Z,10.90
2018-09-21T20:19:14.770Z,10.86
2018-09-21T20:21:43.354Z,10.82
2018-09-21T20:24:11.983Z,10.79
2018-09-21T20:26:40.586Z,10.81
2018-09-21T20:29:09.267Z,10.99
2018-09-21T20:31:43.079Z,11.21
2018-09-21T20:34:11.707Z,11.39
2018-09-21T20:36:40.303Z,11.49
2018-09-21T20:39:09.491Z,11.57
2018-09-21T20:41:38.116Z,11.57
2018-09-21T20:44:06.817Z,11.62
2018-09-21T20:46:35.420Z,11.56
2018-09-21T20:49:04.049Z,11.48
2018-09-21T20:51:32.660Z,11.42
2018-09-21T20:54:01.305Z,11.38
2018-09-21T20:56:29.903Z,11.35
2018-09-21T20:58:58.592Z,11.29
2018-09-21T21:01:27.216Z,11.25
2018-09-21T21:03:55.825Z,11.21
2018-09-21T21:06:24.415Z,11.15
2018-09-21T21:08:53.031Z,11.07
2018-09-21T21:11:21.690Z,11.07
2018-09-21T21:13:50.299Z,11.08
2018-09-21T21:16:19.001Z,11.06
2018-09-21T21:18:47.597Z,11.02
2018-09-21T21:21:16.232Z,10.96
2018-09-21T21:23:44.825Z,10.91
2018-09-21T21:26:13.450Z,10.88
2018-09-21T21:28:42.050Z,10.79
2018-09-21T21:31:10.701Z,10.70
2018-09-21T21:33:39.306Z,10.59
2018-09-21T21:36:08.234Z,10.56
2018-09-21T21:38:37.040Z,10.50
2018-09-21T21:41:05.661Z,10.43
2018-09-21T21:43:34.259Z,10.38
2018-09-21T21:46:03.044Z,10.31
2018-09-21T21:48:31.618Z,10.24
2018-09-21T21:51:00.256Z,10.21
2018-09-21T21:53:28.872Z,10.18
2018-09-21T21:55:57.491Z,10.13
2018-09-21T21:58:26.082Z,10.14
2018-09-21T22:01:00.059Z,10.11
2018-09-21T22:03:28.690Z,10.08
2018-09-21T22:05:57.314Z,10.05
2018-09-21T22:08:25.917Z,10.02
2018-09-21T22:10:54.582Z,9.98
2018-09-21T22:13:28.408Z,9.92
2018-09-21T22:15:57.010Z,9.88
2018-09-21T22:18:25.596Z,9.85
2018-09-21T22:20:54.215Z,9.84
2018-09-21T22:23:22.810Z,9.78
2018-09-21T22:25:51.415Z,9.74
2018-09-21T22:28:20.011Z,9.70
2018-09-21T22:30:48.800Z,9.65
2018-09-21T22:33:17.425Z,9.65
2018-09-21T22:35:46.045Z,9.62
2018-09-21T22:38:14.671Z,9.63
2018-09-21T22:40:43.402Z,9.63
2018-09-21T22:43:11.967Z,9.61
2018-09-21T22:45:40.566Z,9.62
2018-09-21T22:48:09.142Z,9.58
2018-09-21T22:50:37.755Z,9.61
2018-09-21T22:53:06.625Z,9.59
2018-09-21T22:55:35.223Z,9.53
2018-09-21T22:58:03.812Z,9.51
2018-09-21T23:00:32.449Z,9.48
2018-09-21T23:03:01.046Z,9.48
2018-09-21T23:05:29.649Z,9.47
2018-09-21T23:07:58.240Z,9.45
2018-09-21T23:10:26.845Z,9.46
2018-09-21T23:12:55.415Z,9.46
2018-09-21T23:15:24.025Z,9.45
2018-09-21T23:17:52.614Z,9.39
2018-09-21T23:20:21.231Z,9.41
2018-09-21T23:22:49.836Z,9.43
2018-09-21T23:25:18.428Z,9.44
2018-09-21T23:27:47.043Z,9.46
2018-09-21T23:30:15.634Z,9.48
2018-09-21T23:32:44.271Z,9.46
2018-09-21T23:35:12.878Z,9.45
2018-09-21T23:37:41.479Z,9.40
2018-09-21T23:40:10.076Z,9.39
2018-09-21T23:42:38.717Z,9.44
2018-09-21T23:45:07.490Z,9.41
2018-09-21T23:47:36.119Z,9.43
2018-09-21T23:50:04.739Z,9.46
2018-09-21T23:52:33.346Z,9.46
2018-09-21T23:55:01.962Z,9.46
2018-09-21T23:57:30.559Z,9.44
2018-09-21T23:59:59.159Z,9.39
